Terminal Aerodrome Forecast
Issued by NWS

Home | Current Version | Previous Version | Text Only | Print | Product List | Glossary On
Versions: 1 2 3 4 5 6 7 8 9 10 11 12 13 14 15 16 17 18
000
FTUS41 KCAR 240520
TAFBHB
TAF
KBHB 240520Z 2406/2506 19004KT 1/2SM FG OVC002
     FM241200 18009KT 1SM BR OVC004
     FM241300 17010KT P6SM SCT004 BKN025
     FM242200 17014KT 6SM -DZ OVC008=

USA.gov is the U.S. government's official web portal to all federal, state and local government web resources and services.